Time;durP1;ratioP1;P1;durP2;ratioP2;P2;SDS_P1;SDS_P2;PMS_P1;PMS_P2;Temp;Humidity;BMP_temperature;BMP_pressure;BME280_temperature;BME280_humidity;BME280_pressure;Samples;Min_cycle;Max_cycle;Signal;HPM_P1;HPM_P2
2020/12/12 00:01:17;;;;;;;36.80;25.23;;;3.80;99.90;;;;;;5020828;28;20526;-73
2020/12/12 00:03:43;;;;;;;34.22;25.40;;;3.80;99.90;;;;;;5024316;28;20072;-69
2020/12/12 00:06:10;;;;;;;38.08;25.33;;;3.80;99.90;;;;;;5019944;28;20168;-69
2020/12/12 00:08:37;;;;;;;34.75;23.48;;;3.80;99.90;;;;;;5021419;28;20762;-65
2020/12/12 00:11:03;;;;;;;31.88;22.30;;;3.80;99.90;;;;;;5023060;28;20136;-73
2020/12/12 00:13:30;;;;;;;40.22;24.42;;;3.80;99.90;;;;;;5021819;28;20048;-69
2020/12/12 00:15:57;;;;;;;34.05;24.15;;;3.80;99.90;;;;;;5024389;28;20548;-66
2020/12/12 00:18:23;;;;;;;33.42;23.60;;;3.80;99.90;;;;;;5024502;28;20033;-72
2020/12/12 00:20:50;;;;;;;39.65;25.02;;;3.80;99.90;;;;;;5021303;28;20041;-73
2020/12/12 00:23:16;;;;;;;36.38;24.15;;;3.80;99.90;;;;;;5022372;28;20053;-72
2020/12/12 00:25:47;;;;;;;41.03;25.77;;;3.80;99.90;;;;;;5023534;28;20195;-69
2020/12/12 00:28:15;;;;;;;42.40;25.23;;;3.80;99.90;;;;;;5020253;28;20562;-74
2020/12/12 00:30:41;;;;;;;40.60;25.45;;;3.80;99.90;;;;;;5022459;28;20072;-68
2020/12/12 00:33:08;;;;;;;39.45;25.90;;;3.80;99.90;;;;;;5020243;28;20058;-66
2020/12/12 00:35:34;;;;;;;41.97;25.15;;;3.90;99.90;;;;;;5021490;28;20045;-69
2020/12/12 00:38:01;;;;;;;39.17;25.30;;;3.90;99.90;;;;;;5020619;28;20041;-68
2020/12/12 00:40:27;;;;;;;37.50;25.60;;;3.90;99.90;;;;;;5019628;28;20037;-72
2020/12/12 00:42:54;;;;;;;41.42;27.08;;;3.90;99.90;;;;;;5020523;28;20052;-71
2020/12/12 00:45:21;;;;;;;44.20;27.17;;;3.90;99.90;;;;;;5023645;28;20045;-69
2020/12/12 00:47:47;;;;;;;37.95;24.77;;;3.90;99.90;;;;;;5022546;28;20065;-66
2020/12/12 00:50:14;;;;;;;46.10;27.95;;;3.90;99.90;;;;;;5020704;28;20168;-68
2020/12/12 00:52:40;;;;;;;42.05;26.33;;;3.90;99.90;;;;;;5025473;28;20059;-72
2020/12/12 00:55:07;;;;;;;41.58;25.77;;;3.90;99.90;;;;;;5027226;28;20037;-68
2020/12/12 00:57:34;;;;;;;35.65;25.38;;;3.90;99.90;;;;;;5025038;28;20246;-68
2020/12/12 01:00:00;;;;;;;39.50;26.40;;;3.90;99.90;;;;;;5023783;28;20068;-68
2020/12/12 01:02:26;;;;;;;38.13;25.70;;;3.90;99.90;;;;;;5021791;28;20040;-69
2020/12/12 01:04:53;;;;;;;42.25;26.50;;;3.90;99.90;;;;;;5023641;28;20472;-72
2020/12/12 01:07:23;;;;;;;42.03;25.13;;;4.00;99.90;;;;;;5027739;28;20057;-68
2020/12/12 01:09:49;;;;;;;43.70;25.73;;;4.00;99.90;;;;;;5021500;28;20050;-71
2020/12/12 01:12:17;;;;;;;40.55;24.17;;;4.00;99.90;;;;;;5026516;28;20131;-68
2020/12/12 01:14:45;;;;;;;42.80;25.92;;;4.00;99.90;;;;;;5027158;28;20037;-68
2020/12/12 01:17:12;;;;;;;38.83;24.52;;;4.00;99.90;;;;;;5027920;28;20049;-68
2020/12/12 01:19:38;;;;;;;42.10;24.80;;;4.00;99.90;;;;;;5026839;28;20041;-71
2020/12/12 01:22:05;;;;;;;39.03;25.48;;;4.00;99.90;;;;;;5024960;28;20160;-70
2020/12/12 01:24:31;;;;;;;36.70;24.27;;;4.00;99.90;;;;;;5022408;28;20464;-69
2020/12/12 01:26:58;;;;;;;38.88;25.42;;;4.00;99.90;;;;;;5023266;28;20358;-65
2020/12/12 01:29:24;;;;;;;39.65;22.90;;;4.00;99.90;;;;;;5029313;28;20061;-68
2020/12/12 01:31:51;;;;;;;36.03;22.25;;;4.00;99.90;;;;;;5020260;28;20045;-70
2020/12/12 01:34:17;;;;;;;35.05;24.40;;;4.00;99.90;;;;;;5026044;28;20147;-67
2020/12/12 01:36:47;;;;;;;37.50;23.63;;;4.00;99.90;;;;;;5019649;28;20629;-71
2020/12/12 01:39:14;;;;;;;33.50;21.58;;;4.00;99.90;;;;;;5029093;28;20045;-69
2020/12/12 01:41:41;;;;;;;38.65;23.48;;;4.00;99.90;;;;;;5023631;28;21556;-66
2020/12/12 01:44:07;;;;;;;36.30;23.23;;;4.00;99.90;;;;;;5028384;28;20057;-71
2020/12/12 01:46:34;;;;;;;33.13;23.08;;;4.00;99.90;;;;;;5023249;28;20100;-69
2020/12/12 01:49:01;;;;;;;33.45;21.27;;;4.00;99.90;;;;;;5024828;28;20053;-69
2020/12/12 01:51:28;;;;;;;35.88;22.55;;;4.00;99.90;;;;;;5024207;28;20127;-67
2020/12/12 01:53:57;;;;;;;35.05;22.30;;;4.00;99.90;;;;;;5022889;28;20057;-68
2020/12/12 01:56:27;;;;;;;35.22;21.00;;;4.00;99.90;;;;;;5021131;28;20857;-65
2020/12/12 01:58:53;;;;;;;34.72;23.13;;;4.00;99.90;;;;;;5022672;28;20057;-70
2020/12/12 02:01:22;;;;;;;30.10;21.13;;;4.00;99.90;;;;;;5025130;28;20072;-68
2020/12/12 02:03:50;;;;;;;31.73;21.52;;;4.00;99.90;;;;;;5017834;28;20273;-69
2020/12/12 02:06:35;;;;;;;31.40;20.17;;;4.00;99.90;;;;;;5027818;28;20052;-64
2020/12/12 02:09:02;;;;;;;33.95;21.25;;;4.00;99.90;;;;;;5021323;28;20059;-66
2020/12/12 02:11:29;;;;;;;28.25;19.35;;;4.00;99.90;;;;;;5020754;28;20592;-65
2020/12/12 02:13:56;;;;;;;29.80;19.25;;;4.00;99.90;;;;;;5021809;28;20045;-64
2020/12/12 02:16:23;;;;;;;28.33;20.42;;;4.00;99.90;;;;;;5022493;28;20147;-65
2020/12/12 02:18:49;;;;;;;36.05;21.92;;;4.00;99.90;;;;;;5019941;28;20093;-67
2020/12/12 02:21:16;;;;;;;27.13;19.45;;;4.00;99.90;;;;;;5024498;28;20202;-66
2020/12/12 02:23:42;;;;;;;26.85;17.33;;;4.00;99.90;;;;;;5023606;28;20051;-66
2020/12/12 02:26:09;;;;;;;29.75;20.77;;;4.00;99.90;;;;;;5028006;28;20118;-70
2020/12/12 02:28:48;;;;;;;27.02;17.73;;;4.00;99.90;;;;;;5023393;28;20077;-66
2020/12/12 02:31:15;;;;;;;26.43;17.90;;;4.00;99.90;;;;;;5025929;28;20146;-70
2020/12/12 02:33:42;;;;;;;22.13;17.05;;;4.00;99.90;;;;;;5022375;28;20037;-66
2020/12/12 02:36:09;;;;;;;25.52;17.02;;;4.00;99.90;;;;;;5024761;28;20048;-66
2020/12/12 02:38:35;;;;;;;26.17;16.98;;;4.00;99.90;;;;;;5021220;28;20048;-68
2020/12/12 02:41:01;;;;;;;24.83;16.50;;;4.00;99.90;;;;;;5020532;28;20727;-64
2020/12/12 02:43:28;;;;;;;25.63;17.67;;;4.00;99.90;;;;;;5022146;28;20183;-63
2020/12/12 02:45:54;;;;;;;22.63;15.77;;;4.00;99.90;;;;;;5021468;28;20131;-68
2020/12/12 02:48:21;;;;;;;21.65;16.10;;;4.00;99.90;;;;;;5020560;28;20045;-72
2020/12/12 02:50:48;;;;;;;22.92;14.35;;;4.00;99.90;;;;;;5023206;28;20052;-64
2020/12/12 02:53:14;;;;;;;24.77;16.10;;;4.00;99.90;;;;;;5022226;28;20145;-70
2020/12/12 02:55:41;;;;;;;21.70;15.73;;;4.00;99.90;;;;;;5021515;28;20579;-64
2020/12/12 02:58:07;;;;;;;19.58;13.60;;;4.00;99.90;;;;;;5022372;28;20151;-65
2020/12/12 03:00:34;;;;;;;20.95;15.02;;;4.00;99.90;;;;;;5022273;28;21244;-64
2020/12/12 03:03:00;;;;;;;20.67;13.95;;;4.00;99.90;;;;;;5023532;28;20042;-64
2020/12/12 03:05:27;;;;;;;19.85;15.20;;;4.00;99.90;;;;;;5023261;28;20163;-64
2020/12/12 03:07:53;;;;;;;19.30;13.43;;;4.00;99.90;;;;;;5022362;28;21037;-67
2020/12/12 03:10:20;;;;;;;18.20;12.93;;;4.10;99.90;;;;;;5022367;28;20132;-66
2020/12/12 03:12:46;;;;;;;19.63;14.45;;;4.10;99.90;;;;;;5023581;28;20037;-63
2020/12/12 03:15:13;;;;;;;22.98;14.63;;;4.10;99.90;;;;;;5024026;28;20072;-69
2020/12/12 03:17:39;;;;;;;18.73;12.85;;;4.00;99.90;;;;;;5023456;28;20049;-66
2020/12/12 03:20:07;;;;;;;22.00;15.05;;;4.00;99.90;;;;;;5019726;28;20057;-68
2020/12/12 03:22:34;;;;;;;18.92;14.32;;;4.10;99.90;;;;;;5023695;28;20052;-67
2020/12/12 03:25:03;;;;;;;18.73;12.65;;;4.10;99.90;;;;;;5025208;28;20140;-70
2020/12/12 03:27:29;;;;;;;19.02;13.13;;;4.10;99.90;;;;;;5023870;28;20252;-66
2020/12/12 03:29:56;;;;;;;17.83;14.10;;;4.10;99.90;;;;;;5022389;28;20145;-66
2020/12/12 03:32:30;;;;;;;20.77;12.80;;;4.10;99.90;;;;;;5023217;28;20163;-66
2020/12/12 03:34:57;;;;;;;17.40;13.60;;;4.10;99.90;;;;;;5022660;28;20072;-67
2020/12/12 03:37:24;;;;;;;17.45;12.65;;;4.10;99.90;;;;;;5023349;28;20142;-70
2020/12/12 03:39:51;;;;;;;17.45;12.30;;;4.10;99.90;;;;;;5020830;28;20081;-69
2020/12/12 03:42:18;;;;;;;19.60;13.57;;;4.10;99.90;;;;;;5023494;28;20045;-67
2020/12/12 03:44:44;;;;;;;20.35;13.80;;;4.10;99.90;;;;;;5019243;28;20156;-69
2020/12/12 03:47:11;;;;;;;19.02;13.25;;;4.10;99.90;;;;;;5022304;28;20040;-64
2020/12/12 03:49:38;;;;;;;22.02;14.35;;;4.10;99.90;;;;;;5020769;28;20429;-63
2020/12/12 03:52:04;;;;;;;19.90;14.82;;;4.10;99.90;;;;;;5026319;28;20104;-69
2020/12/12 03:54:31;;;;;;;21.63;15.45;;;4.10;99.90;;;;;;5017496;28;20515;-64
2020/12/12 03:56:57;;;;;;;17.45;13.80;;;4.10;99.90;;;;;;5022839;28;20192;-67
2020/12/12 03:59:24;;;;;;;23.00;18.70;;;4.10;99.90;;;;;;5019011;28;20069;-65
2020/12/12 04:01:50;;;;;;;20.38;14.70;;;4.00;99.90;;;;;;5021861;28;20060;-70
2020/12/12 04:04:17;;;;;;;24.13;15.52;;;4.00;99.90;;;;;;5022149;28;20049;-63
2020/12/12 04:06:43;;;;;;;24.23;16.17;;;4.10;99.90;;;;;;5017207;28;20147;-63
2020/12/12 04:09:10;;;;;;;19.88;13.98;;;4.00;99.90;;;;;;5023079;28;20056;-65
2020/12/12 04:11:36;;;;;;;22.98;17.13;;;4.00;99.90;;;;;;5021681;28;20603;-64
2020/12/12 04:14:03;;;;;;;29.67;17.83;;;4.10;99.90;;;;;;5023969;28;20053;-67
2020/12/12 04:16:30;;;;;;;20.98;14.70;;;4.10;99.90;;;;;;5019084;28;20141;-63
2020/12/12 04:18:56;;;;;;;22.73;16.10;;;4.10;99.90;;;;;;5022553;28;20087;-64
2020/12/12 04:21:24;;;;;;;23.40;15.52;;;4.10;99.90;;;;;;5020371;28;20049;-67
2020/12/12 04:23:51;;;;;;;24.35;14.95;;;4.00;99.90;;;;;;5020501;28;20682;-68
2020/12/12 04:26:17;;;;;;;23.05;15.48;;;4.00;99.90;;;;;;5024348;28;20515;-67
2020/12/12 04:28:44;;;;;;;25.85;15.73;;;4.10;99.90;;;;;;5024821;28;20057;-70
2020/12/12 04:31:11;;;;;;;23.35;16.35;;;4.00;99.90;;;;;;5023562;28;20101;-68
2020/12/12 04:33:38;;;;;;;20.02;14.73;;;4.00;99.90;;;;;;5028077;28;20063;-69
2020/12/12 04:36:04;;;;;;;25.35;16.02;;;4.00;99.90;;;;;;5024761;28;20875;-69
2020/12/12 04:38:34;;;;;;;29.23;16.02;;;4.00;99.90;;;;;;5025040;28;20425;-66
2020/12/12 04:41:11;;;;;;;20.30;15.35;;;4.00;99.90;;;;;;5025638;28;20059;-66
2020/12/12 04:43:39;;;;;;;25.15;16.25;;;4.00;99.90;;;;;;5028162;28;20045;-67
2020/12/12 04:46:07;;;;;;;24.13;16.67;;;4.00;99.90;;;;;;5024086;28;20102;-64
2020/12/12 04:48:33;;;;;;;24.02;16.92;;;4.00;99.90;;;;;;5028578;28;20484;-71
2020/12/12 04:51:00;;;;;;;23.23;14.68;;;4.00;99.90;;;;;;5022931;28;20504;-66
2020/12/12 04:53:26;;;;;;;21.35;15.85;;;4.00;99.90;;;;;;5028339;28;20192;-69
2020/12/12 04:55:55;;;;;;;23.27;15.18;;;4.10;99.90;;;;;;5025342;28;20735;-65
2020/12/12 04:58:24;;;;;;;23.83;15.80;;;4.10;99.90;;;;;;5024367;28;20060;-63
2020/12/12 05:00:52;;;;;;;23.23;16.23;;;4.00;99.90;;;;;;5022375;28;20227;-69
2020/12/12 05:03:21;;;;;;;20.80;15.68;;;4.00;99.90;;;;;;5030413;28;20430;-69
2020/12/12 05:05:48;;;;;;;23.98;16.25;;;4.00;99.90;;;;;;5023419;28;20046;-65
2020/12/12 05:08:14;;;;;;;21.50;15.18;;;4.00;99.90;;;;;;5026209;28;20104;-67
2020/12/12 05:10:44;;;;;;;24.27;14.63;;;4.00;99.90;;;;;;5021801;28;20084;-63
2020/12/12 05:13:19;;;;;;;22.63;15.95;;;4.00;99.90;;;;;;5030652;28;20602;-72
2020/12/12 05:15:47;;;;;;;27.60;16.55;;;4.00;99.90;;;;;;5025509;28;20527;-69
2020/12/12 05:18:14;;;;;;;31.23;17.65;;;4.10;99.90;;;;;;5024158;28;20101;-66
2020/12/12 05:20:41;;;;;;;22.08;15.48;;;4.10;99.90;;;;;;5025288;28;20050;-71
2020/12/12 05:23:13;;;;;;;22.17;16.33;;;4.10;99.90;;;;;;5029766;28;20091;-64
2020/12/12 05:25:58;;;;;;;25.85;17.83;;;4.10;99.90;;;;;;5027932;28;20060;-69
2020/12/12 05:28:25;;;;;;;27.20;18.65;;;4.00;99.90;;;;;;5023572;28;20059;-71
2020/12/12 05:30:52;;;;;;;24.75;17.15;;;4.10;99.90;;;;;;5025591;28;20084;-69
2020/12/12 05:33:23;;;;;;;25.67;16.83;;;4.00;99.90;;;;;;5024037;28;20901;-66
2020/12/12 05:35:51;;;;;;;29.08;17.85;;;4.10;99.90;;;;;;5027211;28;20060;-70
2020/12/12 05:38:18;;;;;;;31.17;19.65;;;4.10;99.90;;;;;;5022732;28;20045;-67
2020/12/12 05:40:51;;;;;;;27.58;17.40;;;4.10;99.90;;;;;;5022652;28;20080;-67
2020/12/12 05:43:18;;;;;;;27.92;17.70;;;4.10;99.90;;;;;;5020992;28;20047;-67
2020/12/12 05:45:44;;;;;;;26.48;17.38;;;4.10;99.90;;;;;;5029590;28;20655;-66
2020/12/12 05:48:12;;;;;;;29.50;20.27;;;4.10;99.90;;;;;;5021345;28;20045;-66
2020/12/12 05:50:39;;;;;;;26.98;18.55;;;4.10;99.90;;;;;;5026134;28;20122;-69
2020/12/12 05:53:06;;;;;;;29.48;19.33;;;4.10;99.90;;;;;;5021362;28;20052;-69
2020/12/12 05:55:34;;;;;;;24.00;18.17;;;4.10;99.90;;;;;;5026502;28;20048;-66
2020/12/12 05:58:01;;;;;;;30.85;18.20;;;4.10;99.90;;;;;;5022431;28;20482;-64
2020/12/12 06:00:30;;;;;;;27.80;18.45;;;4.10;99.90;;;;;;5023591;28;20098;-63
2020/12/12 06:03:00;;;;;;;26.60;17.23;;;4.10;99.90;;;;;;5026310;28;20045;-66
2020/12/12 06:05:29;;;;;;;27.75;18.95;;;4.10;99.90;;;;;;5025802;28;20045;-66
2020/12/12 06:08:01;;;;;;;26.33;17.05;;;4.10;99.90;;;;;;5028567;28;20390;-67
2020/12/12 06:10:30;;;;;;;26.50;18.40;;;4.10;99.90;;;;;;5023464;28;20053;-64
2020/12/12 06:12:58;;;;;;;26.52;18.50;;;4.10;99.90;;;;;;5028850;28;20114;-67
2020/12/12 06:15:39;;;;;;;30.35;18.27;;;4.10;99.90;;;;;;5026425;28;20053;-69
2020/12/12 06:18:31;;;;;;;30.95;19.20;;;4.10;99.90;;;;;;5024742;28;20088;-66
2020/12/12 06:21:02;;;;;;;25.55;19.35;;;4.10;99.90;;;;;;5026540;28;20439;-67
2020/12/12 06:23:32;;;;;;;31.85;17.92;;;4.10;99.90;;;;;;5020900;28;20047;-66
2020/12/12 06:25:59;;;;;;;28.57;17.53;;;4.10;99.90;;;;;;5024878;28;20591;-66
2020/12/12 06:28:28;;;;;;;29.80;18.27;;;4.20;99.90;;;;;;5020773;28;20361;-65
2020/12/12 06:30:58;;;;;;;27.63;18.08;;;4.20;99.90;;;;;;5022212;28;20416;-70
2020/12/12 06:33:24;;;;;;;29.30;17.98;;;4.20;99.90;;;;;;5033937;28;20049;-68
2020/12/12 06:35:53;;;;;;;31.77;19.98;;;4.20;99.90;;;;;;5023895;28;20044;-66
2020/12/12 06:38:25;;;;;;;31.45;20.75;;;4.20;99.90;;;;;;5023786;28;20044;-68
2020/12/12 06:40:54;;;;;;;28.35;19.00;;;4.20;99.90;;;;;;5021894;28;20049;-66
2020/12/12 06:43:28;;;;;;;27.38;18.60;;;4.20;99.90;;;;;;5024443;28;20559;-66
2020/12/12 06:45:55;;;;;;;30.17;20.05;;;4.20;99.90;;;;;;5020796;28;20383;-69
2020/12/12 06:48:27;;;;;;;33.13;20.30;;;4.20;99.90;;;;;;5025366;28;20049;-63
2020/12/12 06:50:55;;;;;;;34.22;22.23;;;4.20;99.90;;;;;;5020784;28;20732;-67
2020/12/12 06:53:24;;;;;;;35.40;23.13;;;4.20;99.90;;;;;;5025136;28;20147;-66
2020/12/12 06:56:11;;;;;;;31.00;21.88;;;4.20;99.90;;;;;;5021096;28;20120;-65
2020/12/12 06:58:39;;;;;;;32.63;21.40;;;4.20;99.90;;;;;;5022317;28;20040;-66
2020/12/12 07:01:29;;;;;;;31.02;22.65;;;4.20;99.90;;;;;;5017637;28;20046;-68
2020/12/12 07:04:00;;;;;;;32.97;22.58;;;4.30;99.90;;;;;;5029663;28;20045;-64
2020/12/12 07:06:28;;;;;;;31.23;22.08;;;4.30;99.90;;;;;;5023151;28;20500;-70
2020/12/12 07:09:05;;;;;;;35.17;22.40;;;4.20;99.90;;;;;;5025003;28;20433;-68
2020/12/12 07:11:32;;;;;;;38.58;22.88;;;4.30;99.90;;;;;;5021105;28;20986;-70
2020/12/12 07:13:59;;;;;;;34.92;22.80;;;4.30;99.90;;;;;;5026373;28;20045;-63
2020/12/12 07:16:26;;;;;;;33.55;21.58;;;4.30;99.90;;;;;;5022273;28;20119;-65
2020/12/12 07:18:53;;;;;;;31.63;23.17;;;4.30;99.90;;;;;;5025213;28;20045;-69
2020/12/12 07:21:20;;;;;;;38.55;25.75;;;4.30;99.90;;;;;;5021634;28;20401;-69
2020/12/12 07:23:48;;;;;;;40.05;23.95;;;4.30;99.90;;;;;;5020690;28;20449;-66
2020/12/12 07:26:15;;;;;;;35.92;23.83;;;4.30;99.90;;;;;;5024069;28;20040;-68
2020/12/12 07:28:42;;;;;;;38.38;26.05;;;4.30;99.90;;;;;;5021515;28;20038;-65
2020/12/12 07:31:10;;;;;;;34.45;23.92;;;4.30;99.90;;;;;;5022129;28;20049;-68
2020/12/12 07:33:36;;;;;;;34.05;23.92;;;4.30;99.90;;;;;;5019197;28;20041;-69
2020/12/12 07:36:03;;;;;;;32.00;23.35;;;4.30;99.90;;;;;;5027314;28;20453;-66
2020/12/12 07:38:29;;;;;;;36.63;22.75;;;4.40;99.90;;;;;;5022113;28;20067;-69
2020/12/12 07:40:56;;;;;;;37.53;23.88;;;4.40;99.90;;;;;;5029313;28;20037;-71
2020/12/12 07:43:22;;;;;;;36.47;24.42;;;4.30;99.90;;;;;;5020291;28;20119;-73
2020/12/12 07:46:06;;;;;;;40.38;25.83;;;4.40;99.90;;;;;;5022749;28;20102;-65
2020/12/12 07:48:32;;;;;;;36.58;24.20;;;4.40;99.90;;;;;;5018884;28;20048;-71
2020/12/12 07:50:59;;;;;;;31.23;24.60;;;4.40;99.90;;;;;;5028251;28;20043;-64
2020/12/12 07:53:28;;;;;;;37.15;25.10;;;4.40;99.90;;;;;;5022813;28;20056;-72
2020/12/12 07:55:58;;;;;;;39.40;25.65;;;4.40;99.90;;;;;;5024721;28;20081;-67
2020/12/12 07:58:31;;;;;;;36.90;25.98;;;4.40;99.90;;;;;;5022664;28;20540;-73
2020/12/12 08:01:00;;;;;;;34.63;25.00;;;4.50;99.90;;;;;;5016835;28;20053;-71
2020/12/12 08:03:27;;;;;;;32.15;23.25;;;4.50;99.90;;;;;;5024356;28;20156;-72
2020/12/12 08:06:07;;;;;;;30.42;22.02;;;4.50;99.90;;;;;;5023084;28;20053;-67
2020/12/12 08:08:37;;;;;;;39.80;25.27;;;4.50;99.90;;;;;;5023178;28;20056;-69
2020/12/12 08:11:06;;;;;;;32.85;22.70;;;4.50;99.90;;;;;;5022050;28;20107;-71
2020/12/12 08:13:32;;;;;;;34.25;23.38;;;4.50;99.90;;;;;;5022853;28;20045;-69
2020/12/12 08:16:02;;;;;;;30.58;20.55;;;4.50;99.90;;;;;;5023127;28;20648;-69
2020/12/12 08:18:29;;;;;;;34.90;21.20;;;4.50;99.90;;;;;;5022915;28;20049;-68
2020/12/12 08:21:13;;;;;;;27.85;21.23;;;4.50;99.90;;;;;;5023066;28;20152;-67
2020/12/12 08:23:41;;;;;;;36.30;22.90;;;4.50;99.90;;;;;;5027233;28;20056;-72
2020/12/12 08:26:11;;;;;;;31.45;20.80;;;4.50;99.90;;;;;;5020352;28;20108;-69
2020/12/12 08:28:38;;;;;;;32.75;22.52;;;4.50;99.90;;;;;;5025968;28;20045;-74
2020/12/12 08:31:18;;;;;;;32.65;23.08;;;4.50;99.90;;;;;;5023083;28;20077;-72
2020/12/12 08:33:46;;;;;;;29.48;21.20;;;4.50;99.90;;;;;;5021554;28;20128;-71
2020/12/12 08:36:17;;;;;;;31.60;19.40;;;4.50;99.90;;;;;;5022831;28;20133;-69
2020/12/12 08:38:55;;;;;;;31.67;21.13;;;4.50;99.90;;;;;;5019240;28;20048;-68
2020/12/12 08:41:31;;;;;;;23.70;18.63;;;4.60;99.90;;;;;;5022406;28;20436;-71
2020/12/12 08:43:58;;;;;;;26.75;18.20;;;4.50;99.90;;;;;;5027631;28;20049;-67
2020/12/12 08:46:25;;;;;;;24.60;17.75;;;4.60;99.90;;;;;;5019173;28;20049;-68
2020/12/12 08:48:54;;;;;;;22.30;16.55;;;4.60;99.90;;;;;;5018516;28;20064;-67
2020/12/12 08:51:31;;;;;;;24.65;16.85;;;4.60;99.90;;;;;;5022981;28;20059;-68
2020/12/12 08:53:58;;;;;;;23.10;16.83;;;4.60;99.90;;;;;;5026272;28;20051;-71
2020/12/12 08:56:27;;;;;;;26.40;16.75;;;4.70;99.90;;;;;;5017054;28;20045;-68
2020/12/12 08:59:03;;;;;;;22.65;16.02;;;4.60;99.90;;;;;;5022497;28;20052;-68
2020/12/12 09:01:44;;;;;;;22.67;15.68;;;4.70;99.90;;;;;;5013699;28;20040;-72
2020/12/12 09:04:13;;;;;;;24.20;15.50;;;4.70;99.90;;;;;;5012103;28;20038;-70
2020/12/12 09:06:54;;;;;;;22.20;17.00;;;4.70;99.90;;;;;;5024959;28;20402;-68
2020/12/12 09:09:21;;;;;;;;;;;4.70;99.90;;;;;;5022807;28;20666;-66
2020/12/12 09:12:03;;;;;;;23.73;16.35;;;4.70;99.90;;;;;;5026676;28;19920;-70
2020/12/12 09:14:32;;;;;;;24.83;15.02;;;4.70;99.90;;;;;;5018654;28;20041;-68
2020/12/12 09:17:00;;;;;;;31.65;19.85;;;4.80;99.90;;;;;;5027662;28;20053;-66
2020/12/12 09:19:28;;;;;;;23.85;16.80;;;4.80;99.90;;;;;;5021829;28;20307;-66
2020/12/12 09:21:56;;;;;;;26.17;17.85;;;4.80;99.90;;;;;;5026126;28;20384;-73
2020/12/12 09:24:23;;;;;;;29.10;18.23;;;4.80;99.90;;;;;;5021172;28;20072;-72
2020/12/12 09:26:52;;;;;;;26.30;17.77;;;4.80;99.90;;;;;;5021777;28;20439;-67
2020/12/12 09:29:18;;;;;;;30.13;20.52;;;4.80;99.90;;;;;;5040336;28;20088;-67
2020/12/12 09:31:46;;;;;;;31.70;19.63;;;4.80;99.90;;;;;;5023296;28;20068;-68
2020/12/12 09:34:12;;;;;;;27.85;20.25;;;4.80;99.90;;;;;;5023294;28;20518;-64
2020/12/12 09:36:39;;;;;;;28.77;19.08;;;4.80;99.90;;;;;;5022615;28;20045;-70
2020/12/12 09:39:06;;;;;;;31.05;21.27;;;4.80;99.90;;;;;;5022652;28;20152;-68
2020/12/12 09:41:34;;;;;;;28.20;20.20;;;4.90;99.90;;;;;;5016684;28;20049;-68
2020/12/12 09:44:05;;;;;;;26.08;18.33;;;4.90;99.90;;;;;;5015936;28;20610;-67
2020/12/12 09:46:31;;;;;;;28.58;21.15;;;4.90;99.90;;;;;;5020692;28;20052;-66
2020/12/12 09:48:58;;;;;;;29.73;20.77;;;4.90;99.90;;;;;;5014868;28;20138;-68
2020/12/12 09:51:25;;;;;;;30.90;20.60;;;4.90;99.90;;;;;;5023243;28;20072;-70
2020/12/12 09:53:53;;;;;;;34.08;21.92;;;4.90;99.90;;;;;;5019894;28;20522;-67
2020/12/12 09:56:21;;;;;;;32.03;23.38;;;4.90;99.90;;;;;;5024923;28;20041;-69
2020/12/12 09:58:47;;;;;;;29.90;20.48;;;4.90;99.90;;;;;;5021084;28;20277;-70
2020/12/12 10:01:15;;;;;;;32.40;24.20;;;4.90;99.90;;;;;;5021566;28;20053;-70
2020/12/12 10:03:41;;;;;;;34.13;23.52;;;4.90;99.90;;;;;;5024427;28;20045;-70
2020/12/12 10:06:10;;;;;;;36.38;23.17;;;4.90;99.90;;;;;;5024542;28;20133;-68
2020/12/12 10:08:38;;;;;;;41.13;25.10;;;4.90;99.90;;;;;;5022488;28;20064;-68
2020/12/12 10:11:05;;;;;;;34.58;23.33;;;4.90;99.90;;;;;;5027164;28;20036;-69
2020/12/12 10:13:32;;;;;;;40.83;25.02;;;4.90;99.90;;;;;;5025009;28;21071;-67
2020/12/12 10:15:59;;;;;;;40.50;25.40;;;4.90;99.90;;;;;;5026877;28;20045;-71
2020/12/12 10:18:25;;;;;;;41.90;27.77;;;4.90;99.90;;;;;;5022239;28;20048;-67
2020/12/12 10:20:52;;;;;;;37.22;23.90;;;4.90;99.90;;;;;;5022999;28;20127;-70
2020/12/12 10:23:19;;;;;;;43.25;25.40;;;5.00;99.90;;;;;;5020896;28;20041;-67
2020/12/12 10:25:46;;;;;;;36.58;23.65;;;5.00;99.90;;;;;;5024714;28;20058;-64
2020/12/12 10:28:12;;;;;;;35.50;25.15;;;5.10;99.90;;;;;;5025949;28;20044;-67
2020/12/12 10:30:38;;;;;;;36.53;25.67;;;5.00;99.90;;;;;;5018753;28;20081;-67
2020/12/12 10:33:06;;;;;;;34.53;23.02;;;5.00;99.90;;;;;;5027755;28;20412;-70
2020/12/12 10:35:33;;;;;;;34.53;22.58;;;5.00;99.90;;;;;;5050723;28;20134;-71
2020/12/12 10:38:18;;;;;;;39.65;26.58;;;5.00;99.90;;;;;;5028685;28;20198;-70
2020/12/12 10:40:49;;;;;;;35.75;22.98;;;5.00;99.90;;;;;;5012399;28;20057;-70
2020/12/12 10:43:15;;;;;;;32.78;22.50;;;5.00;99.90;;;;;;5028832;28;20060;-67
2020/12/12 10:45:42;;;;;;;35.80;22.90;;;5.00;99.90;;;;;;5023820;28;20844;-71
2020/12/12 10:48:09;;;;;;;29.48;22.17;;;5.10;99.90;;;;;;5026031;28;20045;-68
2020/12/12 10:50:36;;;;;;;31.95;20.67;;;5.10;99.90;;;;;;5019025;28;20510;-68
2020/12/12 10:53:02;;;;;;;32.75;21.27;;;5.10;99.90;;;;;;5014301;28;20382;-70
2020/12/12 10:55:29;;;;;;;36.45;23.38;;;5.10;99.90;;;;;;5018937;28;20053;-66
2020/12/12 10:57:56;;;;;;;41.83;22.35;;;5.10;99.90;;;;;;5020285;28;20044;-70
2020/12/12 11:00:26;;;;;;;36.50;22.33;;;5.10;99.90;;;;;;5022878;28;20061;-69
2020/12/12 11:02:53;;;;;;;37.25;21.83;;;5.10;99.90;;;;;;5025199;28;20564;-65
2020/12/12 11:05:21;;;;;;;37.25;22.33;;;5.10;99.90;;;;;;5025550;28;20819;-68
2020/12/12 11:07:52;;;;;;;39.03;24.13;;;5.10;99.90;;;;;;5019579;28;20052;-69
2020/12/12 11:10:19;;;;;;;39.70;23.98;;;5.10;99.90;;;;;;5024766;28;20068;-70
2020/12/12 11:12:45;;;;;;;43.25;24.50;;;5.10;99.90;;;;;;5020270;28;20075;-66
2020/12/12 11:15:14;;;;;;;44.22;25.23;;;5.10;99.90;;;;;;5023437;28;20049;-67
2020/12/12 11:17:44;;;;;;;35.42;21.80;;;5.10;99.90;;;;;;5021848;28;21447;-67
2020/12/12 11:20:12;;;;;;;48.00;26.60;;;5.10;99.90;;;;;;5030914;28;20053;-67
2020/12/12 11:22:38;;;;;;;52.03;27.23;;;5.10;99.90;;;;;;5011686;28;20112;-68
2020/12/12 11:25:06;;;;;;;59.65;26.95;;;5.10;99.90;;;;;;5029500;28;20045;-66
2020/12/12 11:27:33;;;;;;;42.10;23.83;;;5.10;99.90;;;;;;5022906;28;20049;-69
2020/12/12 11:30:00;;;;;;;49.67;27.42;;;5.10;99.90;;;;;;5026853;28;20083;-68
2020/12/12 11:32:27;;;;;;;46.58;27.00;;;5.10;99.90;;;;;;5020305;28;20056;-70
2020/12/12 11:35:16;;;;;;;44.92;25.05;;;5.10;99.90;;;;;;5035123;28;20052;-67
2020/12/12 11:40:24;;;;;;;41.75;22.20;;;5.10;99.90;;;;;;5021582;28;20042;-66
2020/12/12 11:46:11;;;;;;;40.08;20.25;;;5.00;99.90;;;;;;5027056;28;20660;-69
2020/12/12 11:48:26;;;;;;;39.47;21.08;;;5.00;99.90;;;;;;5016153;28;20115;-70
2020/12/12 11:50:52;;;;;;;40.08;21.95;;;5.00;99.90;;;;;;5031627;28;20126;-68
2020/12/12 11:53:19;;;;;;;36.78;18.73;;;4.90;99.90;;;;;;5021398;28;20126;-68
2020/12/12 11:55:45;;;;;;;34.97;20.75;;;5.00;99.90;;;;;;5022390;28;20166;-70
2020/12/12 11:58:11;;;;;;;33.03;19.85;;;4.90;99.90;;;;;;5022838;28;20211;-64
2020/12/12 12:00:43;;;;;;;32.25;18.30;;;4.90;99.90;;;;;;5021915;28;20684;-69
2020/12/12 12:03:12;;;;;;;28.60;16.10;;;4.90;99.90;;;;;;5025292;28;20049;-68
2020/12/12 12:05:41;;;;;;;29.83;17.67;;;4.90;99.90;;;;;;5022207;28;20057;-70
2020/12/12 12:08:36;;;;;;;31.73;17.67;;;4.80;99.90;;;;;;5024127;28;20080;-68
2020/12/12 12:13:40;;;;;;;37.08;18.88;;;4.70;99.90;;;;;;5024670;28;20654;-67
2020/12/12 12:16:07;;;;;;;36.80;19.50;;;4.70;99.90;;;;;;5023569;28;20056;-67
2020/12/12 12:18:34;;;;;;;41.97;22.52;;;4.70;99.90;;;;;;5022840;28;20056;-65
2020/12/12 12:21:02;;;;;;;40.50;24.48;;;4.70;99.90;;;;;;5020383;28;20242;-66
2020/12/12 12:23:28;;;;;;;42.78;23.42;;;4.70;99.90;;;;;;5024407;28;20041;-70
2020/12/12 12:25:55;;;;;;;42.53;21.85;;;4.60;99.90;;;;;;5020229;28;20052;-71
2020/12/12 12:28:22;;;;;;;38.00;25.00;;;4.50;99.90;;;;;;5046146;28;20056;-65
2020/12/12 12:30:49;;;;;;;45.58;22.75;;;4.60;99.90;;;;;;5017731;28;20045;-69
2020/12/12 12:33:16;;;;;;;43.17;22.80;;;4.50;99.90;;;;;;5030100;28;20146;-65
2020/12/12 12:35:43;;;;;;;44.58;24.15;;;4.50;99.90;;;;;;5021221;28;20115;-68
2020/12/12 12:38:09;;;;;;;41.17;22.73;;;4.50;99.90;;;;;;5023327;28;20042;-68
2020/12/12 12:40:36;;;;;;;36.17;22.02;;;4.50;99.90;;;;;;5015775;28;20106;-70
2020/12/12 12:43:03;;;;;;;40.22;23.23;;;4.50;99.90;;;;;;5026114;28;20556;-68
2020/12/12 12:45:30;;;;;;;46.33;21.15;;;4.50;99.90;;;;;;5025471;28;20135;-68
2020/12/12 12:47:56;;;;;;;38.38;21.42;;;4.50;99.90;;;;;;5025501;28;20049;-67
2020/12/12 12:50:44;;;;;;;38.22;22.38;;;4.50;99.90;;;;;;5021594;28;20540;-69
2020/12/12 12:53:11;;;;;;;38.35;19.70;;;4.50;99.90;;;;;;5029667;28;20069;-68